createdAt,value
2022-10-19T00:01:06.195Z,13.46
2022-10-19T00:04:08.959Z,14.32
2022-10-19T00:07:11.011Z,15.07
2022-10-19T00:10:12.853Z,15.04
2022-10-19T00:13:14.677Z,13.81
2022-10-19T00:16:17.731Z,13.38
2022-10-19T00:19:20.909Z,13.79
2022-10-19T00:22:22.735Z,13.85
2022-10-19T00:25:24.553Z,14.09
2022-10-19T00:28:26.530Z,15.15
2022-10-19T00:31:28.424Z,15.38
2022-10-19T00:34:30.269Z,15.40
2022-10-19T00:37:32.049Z,15.38
2022-10-19T00:40:37.903Z,15.06
2022-10-19T00:43:52.115Z,14.31
2022-10-19T00:46:54.385Z,14.46
2022-10-19T00:49:56.362Z,13.18
2022-10-19T00:52:58.272Z,13.88
2022-10-19T00:56:00.484Z,14.24
2022-10-19T00:59:03.310Z,14.22
2022-10-19T01:02:05.901Z,13.88
2022-10-19T01:05:07.941Z,14.34
2022-10-19T01:08:09.880Z,14.08
2022-10-19T01:11:30.729Z,14.84
2022-10-19T01:14:51.360Z,15.07
2022-10-19T01:17:59.433Z,14.37
2022-10-19T01:21:03.779Z,14.36
2022-10-19T01:24:24.513Z,14.28
2022-10-19T01:27:26.494Z,14.73
2022-10-19T01:30:40.843Z,14.57
2022-10-19T01:34:01.274Z,14.77
2022-10-19T01:37:17.652Z,14.80
2022-10-19T01:40:19.393Z,14.89
2022-10-19T01:43:36.973Z,15.23
2022-10-19T01:46:43.896Z,14.80
2022-10-19T01:49:48.359Z,15.50
2022-10-19T01:52:50.149Z,15.26
2022-10-19T01:55:52.286Z,14.61
2022-10-19T01:58:54.760Z,15.06
2022-10-19T02:01:56.744Z,15.06
2022-10-19T02:04:58.626Z,15.53
2022-10-19T02:08:01.551Z,14.95
2022-10-19T02:11:03.769Z,15.36
2022-10-19T02:14:06.503Z,14.80
2022-10-19T02:17:09.232Z,14.26
2022-10-19T02:20:11.118Z,15.07
2022-10-19T02:23:13.657Z,14.12
2022-10-19T02:26:15.497Z,15.91
2022-10-19T02:29:17.389Z,14.65
2022-10-19T02:32:19.198Z,14.93
2022-10-19T02:35:21.028Z,14.74
2022-10-19T02:38:22.981Z,15.30
2022-10-19T02:41:27.464Z,15.03
2022-10-19T02:44:41.497Z,14.03
2022-10-19T02:47:45.281Z,14.18
2022-10-19T02:50:47.789Z,15.36
2022-10-19T02:53:49.598Z,15.20
2022-10-19T02:56:51.423Z,14.87
2022-10-19T02:59:53.293Z,14.67
2022-10-19T03:02:55.144Z,14.61
2022-10-19T03:05:56.924Z,15.37
2022-10-19T03:08:58.725Z,15.67
2022-10-19T03:12:00.549Z,16.06
2022-10-19T03:15:02.390Z,16.61
2022-10-19T03:18:04.318Z,15.76
2022-10-19T03:21:07.083Z,15.58
2022-10-19T03:24:08.882Z,16.15
2022-10-19T03:27:10.766Z,15.89
2022-10-19T03:30:12.563Z,15.81
2022-10-19T03:33:15.045Z,16.00
2022-10-19T03:36:27.515Z,15.90
2022-10-19T03:39:29.344Z,15.73
2022-10-19T03:42:31.305Z,16.47
2022-10-19T03:45:33.563Z,17.07
2022-10-19T03:48:35.498Z,16.90
2022-10-19T03:51:37.519Z,16.33
2022-10-19T03:54:39.567Z,16.90
2022-10-19T03:57:41.575Z,16.34
2022-10-19T04:00:43.435Z,15.89
2022-10-19T04:03:45.311Z,16.25
2022-10-19T04:06:47.846Z,16.40
2022-10-19T04:09:49.689Z,16.29
2022-10-19T04:12:53.862Z,16.29
2022-10-19T04:15:56.026Z,16.35
2022-10-19T04:18:58.178Z,16.07
2022-10-19T04:22:00.129Z,16.63
2022-10-19T04:25:01.926Z,17.10
2022-10-19T04:28:03.748Z,16.72
2022-10-19T04:31:05.997Z,16.41
2022-10-19T04:34:07.915Z,15.70
2022-10-19T04:37:09.717Z,15.35
2022-10-19T04:40:14.986Z,15.72
2022-10-19T04:43:17.108Z,16.44
2022-10-19T04:46:19.276Z,16.72
2022-10-19T04:49:21.142Z,16.57
2022-10-19T04:52:22.944Z,15.99
2022-10-19T04:55:24.780Z,15.60
2022-10-19T04:58:27.071Z,15.71
2022-10-19T05:01:30.101Z,15.49
2022-10-19T05:04:31.934Z,16.20
2022-10-19T05:07:34.028Z,16.45
2022-10-19T05:10:36.749Z,15.92
2022-10-19T05:13:38.674Z,15.48
2022-10-19T05:16:40.506Z,15.95
2022-10-19T05:19:42.482Z,16.02
2022-10-19T05:22:44.431Z,16.37
2022-10-19T05:25:46.344Z,16.11
2022-10-19T05:28:59.466Z,15.97
2022-10-19T05:32:01.324Z,16.05
2022-10-19T05:35:03.269Z,16.44
2022-10-19T05:38:05.352Z,15.57
2022-10-19T05:41:07.397Z,16.27
2022-10-19T05:44:10.444Z,15.67
2022-10-19T05:47:12.245Z,15.09
2022-10-19T05:50:14.112Z,15.80
2022-10-19T05:53:15.996Z,16.31
2022-10-19T05:56:18.993Z,16.40
2022-10-19T05:59:21.106Z,16.13
2022-10-19T06:02:23.085Z,16.68
2022-10-19T06:05:25.408Z,16.99
2022-10-19T06:08:27.255Z,17.35
2022-10-19T06:11:30.144Z,18.17
2022-10-19T06:14:31.980Z,17.94
2022-10-19T06:17:34.099Z,19.30
2022-10-19T06:20:37.143Z,19.78
2022-10-19T06:23:39.248Z,18.97
2022-10-19T06:26:41.208Z,19.33
2022-10-19T06:29:43.102Z,20.73
2022-10-19T06:32:45.076Z,20.28
2022-10-19T06:35:46.894Z,19.91
2022-10-19T06:38:48.969Z,21.27
2022-10-19T06:41:50.753Z,20.50
2022-10-19T06:44:52.657Z,21.31
2022-10-19T06:47:54.687Z,21.92
2022-10-19T06:51:02.773Z,21.76
2022-10-19T06:54:04.828Z,22.37
2022-10-19T06:57:08.123Z,22.53
2022-10-19T07:00:10.286Z,21.59
2022-10-19T07:03:12.088Z,23.47
2022-10-19T07:06:13.942Z,22.56
2022-10-19T07:09:16.346Z,21.62
2022-10-19T07:12:18.170Z,21.13
2022-10-19T07:15:20.041Z,23.06
2022-10-19T07:18:22.033Z,23.50
2022-10-19T07:21:23.991Z,23.28
2022-10-19T07:24:25.892Z,24.66
2022-10-19T07:27:27.816Z,20.97
2022-10-19T07:30:29.873Z,20.56
2022-10-19T07:33:31.737Z,20.17
2022-10-19T07:36:34.703Z,18.39
2022-10-19T07:39:36.774Z,18.85
2022-10-19T07:42:39.249Z,17.77
2022-10-19T07:45:41.237Z,17.92
2022-10-19T07:48:43.725Z,16.89
2022-10-19T07:51:46.090Z,18.23
2022-10-19T07:54:49.688Z,18.92
2022-10-19T07:57:51.639Z,17.64
2022-10-19T08:00:59.158Z,17.08
2022-10-19T08:07:23.497Z,18.30
2022-10-19T08:10:25.424Z,18.49
2022-10-19T08:13:27.264Z,18.07
2022-10-19T08:16:37.678Z,17.52
2022-10-19T08:19:43.723Z,18.07
2022-10-19T08:22:46.908Z,17.60
2022-10-19T08:25:49.508Z,18.69
2022-10-19T08:28:51.593Z,19.41
2022-10-19T08:31:53.404Z,18.91
2022-10-19T08:34:55.247Z,18.76
2022-10-19T08:37:58.767Z,18.08
2022-10-19T08:41:04.566Z,17.77
2022-10-19T08:44:12.772Z,17.89
2022-10-19T08:47:15.854Z,18.21
2022-10-19T08:50:23.820Z,19.04
2022-10-19T08:54:01.260Z,18.51
2022-10-19T08:57:06.858Z,19.20
2022-10-19T09:00:14.897Z,18.63
2022-10-19T09:03:31.975Z,19.65
2022-10-19T09:07:03.655Z,19.36
2022-10-19T09:10:05.847Z,19.77
2022-10-19T09:13:19.010Z,19.64
2022-10-19T09:16:21.616Z,19.27
2022-10-19T09:19:26.273Z,20.05
2022-10-19T09:22:32.970Z,19.96
2022-10-19T09:25:35.150Z,19.20
2022-10-19T09:28:58.688Z,19.78
2022-10-19T09:32:01.463Z,19.52
2022-10-19T09:35:05.021Z,19.53
2022-10-19T09:38:07.280Z,19.51
2022-10-19T09:41:27.329Z,19.27
2022-10-19T09:44:29.189Z,19.40
2022-10-19T09:47:40.974Z,20.31
2022-10-19T09:50:43.909Z,20.60
2022-10-19T09:53:55.148Z,21.20
2022-10-19T09:56:57.350Z,21.19
2022-10-19T09:59:59.186Z,20.41
2022-10-19T10:03:01.110Z,21.48
2022-10-19T10:06:04.707Z,20.55
2022-10-19T10:09:07.019Z,20.63
2022-10-19T10:12:09.043Z,21.43
2022-10-19T10:15:14.053Z,22.68
2022-10-19T10:18:16.971Z,22.94
2022-10-19T10:21:25.684Z,22.46
2022-10-19T10:24:29.254Z,22.77
2022-10-19T10:27:38.007Z,23.51
2022-10-19T10:30:39.914Z,21.91
2022-10-19T10:33:45.755Z,22.76
2022-10-19T10:36:51.500Z,22.82
2022-10-19T10:39:55.166Z,22.14
2022-10-19T10:43:01.909Z,20.93
2022-10-19T10:46:08.669Z,22.00
2022-10-19T10:49:17.524Z,22.24
2022-10-19T10:52:19.344Z,21.08
2022-10-19T10:55:21.179Z,20.75
2022-10-19T10:58:43.757Z,21.10
2022-10-19T11:01:48.772Z,20.99
2022-10-19T11:04:52.402Z,21.20
2022-10-19T11:08:24.161Z,22.60
2022-10-19T11:11:28.357Z,22.34
2022-10-19T11:14:49.949Z,23.58
2022-10-19T11:18:05.810Z,21.88
2022-10-19T11:21:20.929Z,22.62
2022-10-19T11:24:38.157Z,22.34
2022-10-19T11:27:59.331Z,22.65
2022-10-19T11:31:21.183Z,23.92
2022-10-19T11:34:26.513Z,22.71
2022-10-19T11:37:29.747Z,22.19
2022-10-19T11:40:45.843Z,20.67
2022-10-19T11:44:19.772Z,21.96
2022-10-19T11:47:42.203Z,21.52
2022-10-19T11:50:49.679Z,21.03
2022-10-19T11:54:19.229Z,21.23
2022-10-19T11:57:26.118Z,20.91
2022-10-19T12:00:38.698Z,20.86
2022-10-19T12:03:40.878Z,20.63
2022-10-19T12:06:42.691Z,20.37
2022-10-19T12:09:47.511Z,20.58
2022-10-19T12:12:50.114Z,21.13
2022-10-19T12:15:54.574Z,21.05
2022-10-19T12:18:58.493Z,20.85
2022-10-19T12:22:00.979Z,21.00
2022-10-19T12:25:03.136Z,20.58
2022-10-19T12:28:05.134Z,21.18
2022-10-19T12:31:07.194Z,21.27
2022-10-19T12:34:09.107Z,21.06
2022-10-19T12:37:12.730Z,21.70
2022-10-19T12:40:17.753Z,20.96
2022-10-19T12:43:20.826Z,20.49
2022-10-19T12:46:28.779Z,20.45
2022-10-19T12:49:30.537Z,21.79
2022-10-19T12:52:35.553Z,21.41
2022-10-19T12:55:40.269Z,21.00
2022-10-19T12:58:48.442Z,21.18
2022-10-19T13:01:50.406Z,21.78
2022-10-19T13:04:52.653Z,22.09
2022-10-19T13:07:54.669Z,25.82
2022-10-19T13:11:06.797Z,27.22
2022-10-19T13:14:34.948Z,28.42
2022-10-19T13:17:37.163Z,29.01
2022-10-19T13:23:46.681Z,30.68
2022-10-19T13:26:48.660Z,30.52
2022-10-19T13:29:50.528Z,27.08
2022-10-19T13:32:52.408Z,28.33
2022-10-19T13:36:00.609Z,26.67
2022-10-19T13:39:05.840Z,28.18
2022-10-19T13:42:19.193Z,24.30
2022-10-19T13:45:24.226Z,24.30
2022-10-19T13:48:29.053Z,22.55
2022-10-19T13:51:41.324Z,21.56
2022-10-19T13:54:43.220Z,20.95
2022-10-19T13:57:53.188Z,19.81
2022-10-19T14:01:19.857Z,19.52
2022-10-19T14:04:25.558Z,20.21
2022-10-19T14:07:31.073Z,20.47
2022-10-19T14:10:43.419Z,19.86
2022-10-19T14:14:06.883Z,19.45
2022-10-19T14:20:32.063Z,19.14
2022-10-19T14:23:39.914Z,19.45
2022-10-19T14:26:41.914Z,18.98
2022-10-19T14:29:45.741Z,19.51
2022-10-19T14:32:47.613Z,18.89
2022-10-19T14:35:49.656Z,18.78
2022-10-19T14:38:54.418Z,18.98
2022-10-19T14:41:56.659Z,18.44
2022-10-19T14:45:01.032Z,19.59
2022-10-19T14:48:04.030Z,18.59
2022-10-19T14:51:09.697Z,18.85
2022-10-19T14:54:13.453Z,18.54
2022-10-19T14:57:17.857Z,18.47
2022-10-19T15:00:21.303Z,18.86
2022-10-19T15:03:24.478Z,18.79
2022-10-19T15:06:33.046Z,18.48
2022-10-19T15:09:37.280Z,18.33
2022-10-19T15:12:46.038Z,18.21
2022-10-19T15:15:48.009Z,18.40
2022-10-19T15:18:50.313Z,18.14
2022-10-19T15:22:11.173Z,18.02
2022-10-19T15:25:13.193Z,17.35
2022-10-19T15:28:19.253Z,17.13
2022-10-19T15:31:24.923Z,17.45
2022-10-19T15:34:29.912Z,17.48
2022-10-19T15:37:31.828Z,17.97
2022-10-19T15:40:37.890Z,17.02
2022-10-19T15:43:44.942Z,17.37
2022-10-19T15:46:46.755Z,17.50
2022-10-19T15:49:52.989Z,17.44
2022-10-19T15:52:54.815Z,17.17
2022-10-19T15:55:57.325Z,17.03
2022-10-19T15:59:00.764Z,17.21
2022-10-19T16:02:02.653Z,16.89
2022-10-19T16:08:12.568Z,16.72
2022-10-19T16:11:18.244Z,17.09
2022-10-19T16:14:20.157Z,17.08
2022-10-19T16:17:22.178Z,16.88
2022-10-19T16:20:24.503Z,16.47
2022-10-19T16:23:26.744Z,17.54
2022-10-19T16:26:28.668Z,17.63
2022-10-19T16:29:30.593Z,17.14
2022-10-19T16:32:32.587Z,16.49
2022-10-19T16:35:35.182Z,17.09
2022-10-19T16:38:37.167Z,16.95
2022-10-19T16:41:39.456Z,16.72
2022-10-19T16:44:41.334Z,16.52
2022-10-19T16:47:43.401Z,15.67
2022-10-19T16:50:45.546Z,15.88
2022-10-19T16:53:47.386Z,16.36
2022-10-19T16:56:49.247Z,17.03
2022-10-19T17:02:58.983Z,16.68
2022-10-19T17:06:04.758Z,15.97
2022-10-19T17:12:29.086Z,16.44
2022-10-19T17:15:42.423Z,16.07
2022-10-19T17:18:45.615Z,16.15
2022-10-19T17:21:49.391Z,15.21
2022-10-19T17:24:51.534Z,15.33
2022-10-19T17:27:53.363Z,15.85
2022-10-19T17:30:55.411Z,15.40
2022-10-19T17:33:57.484Z,15.67
2022-10-19T17:36:59.559Z,15.32
2022-10-19T17:40:01.405Z,15.30
2022-10-19T17:43:03.190Z,15.36
2022-10-19T17:46:06.111Z,15.08
2022-10-19T17:49:08.084Z,14.71
2022-10-19T17:52:09.906Z,15.24
2022-10-19T17:55:13.147Z,15.15
2022-10-19T17:58:15.463Z,15.14
2022-10-19T18:01:18.467Z,15.75
2022-10-19T18:04:20.254Z,15.23
2022-10-19T18:07:25.641Z,15.21
2022-10-19T18:10:27.461Z,15.27
2022-10-19T18:13:29.461Z,15.44
2022-10-19T18:16:32.296Z,15.44
2022-10-19T18:19:34.103Z,15.37
2022-10-19T18:22:36.047Z,14.45
2022-10-19T18:25:53.518Z,15.32
2022-10-19T18:28:56.654Z,16.09
2022-10-19T18:31:58.677Z,15.97
2022-10-19T18:35:00.513Z,15.24
2022-10-19T18:38:02.817Z,15.38
2022-10-19T18:41:08.886Z,14.78
2022-10-19T18:44:11.964Z,14.77
2022-10-19T18:47:13.781Z,14.47
2022-10-19T18:50:17.532Z,14.67
2022-10-19T18:53:19.437Z,14.65
2022-10-19T18:56:21.943Z,13.46
2022-10-19T18:59:23.922Z,13.92
2022-10-19T19:02:34.750Z,14.55
2022-10-19T19:05:44.334Z,15.19
2022-10-19T19:08:46.274Z,14.30
2022-10-19T19:11:48.244Z,14.06
2022-10-19T19:14:50.117Z,14.25
2022-10-19T19:17:53.606Z,14.31
2022-10-19T19:20:55.390Z,14.99
2022-10-19T19:23:58.521Z,14.92
2022-10-19T19:27:00.390Z,13.91
2022-10-19T19:30:04.814Z,15.03
2022-10-19T19:33:06.691Z,14.59
2022-10-19T19:36:09.006Z,14.83
2022-10-19T19:39:10.845Z,14.88
2022-10-19T19:42:13.040Z,14.30
2022-10-19T19:45:14.818Z,14.23
2022-10-19T19:48:16.632Z,14.60
2022-10-19T19:51:20.079Z,14.90
2022-10-19T19:54:21.890Z,14.65
2022-10-19T19:57:23.769Z,15.17
2022-10-19T20:00:25.582Z,14.14
2022-10-19T20:03:27.400Z,13.42
2022-10-19T20:06:29.491Z,14.12
2022-10-19T20:09:31.399Z,13.96
2022-10-19T20:12:33.238Z,14.19
2022-10-19T20:15:38.797Z,13.59
2022-10-19T20:18:41.058Z,14.03
2022-10-19T20:21:43.116Z,13.46
2022-10-19T20:24:44.942Z,14.42
2022-10-19T20:27:46.797Z,14.67
2022-10-19T20:30:48.663Z,13.85
2022-10-19T20:33:50.460Z,13.61
2022-10-19T20:36:52.357Z,14.45
2022-10-19T20:39:54.201Z,13.51
2022-10-19T20:42:56.594Z,13.32
2022-10-19T20:46:17.822Z,12.98
2022-10-19T20:49:19.672Z,13.24
2022-10-19T20:52:21.499Z,13.70
2022-10-19T20:55:23.283Z,13.45
2022-10-19T20:58:25.096Z,13.52
2022-10-19T21:01:27.256Z,13.02
2022-10-19T21:04:29.197Z,13.74
2022-10-19T21:07:31.014Z,12.96
2022-10-19T21:10:32.800Z,13.30
2022-10-19T21:13:34.732Z,12.95
2022-10-19T21:16:37.802Z,12.95
2022-10-19T21:19:39.788Z,13.19
2022-10-19T21:22:41.838Z,13.22
2022-10-19T21:25:52.193Z,13.57
2022-10-19T21:28:54.194Z,13.22
2022-10-19T21:31:56.117Z,13.55
2022-10-19T21:34:57.933Z,12.62
2022-10-19T21:38:00.075Z,13.58
2022-10-19T21:41:12.341Z,14.07
2022-10-19T21:44:14.763Z,14.51
2022-10-19T21:47:16.628Z,13.99
2022-10-19T21:50:19.841Z,13.40
2022-10-19T21:53:23.599Z,13.97
2022-10-19T21:56:25.408Z,14.18
2022-10-19T21:59:27.223Z,13.89
2022-10-19T22:02:29.010Z,14.21
2022-10-19T22:05:30.787Z,13.40
2022-10-19T22:08:32.644Z,12.67
2022-10-19T22:11:34.498Z,12.97
2022-10-19T22:14:36.323Z,13.43
2022-10-19T22:17:38.215Z,13.71
2022-10-19T22:20:40.372Z,13.70
2022-10-19T22:23:42.461Z,13.73
2022-10-19T22:26:45.385Z,13.66
2022-10-19T22:29:47.296Z,13.83
2022-10-19T22:32:49.107Z,13.11
2022-10-19T22:36:00.420Z,13.53
2022-10-19T22:39:02.250Z,13.21
2022-10-19T22:42:41.981Z,13.10
2022-10-19T22:45:46.643Z,12.48
2022-10-19T22:48:48.505Z,12.77
2022-10-19T22:51:50.344Z,11.77
2022-10-19T22:54:52.236Z,12.18
2022-10-19T22:57:54.106Z,12.36
2022-10-19T23:00:59.868Z,12.70
2022-10-19T23:04:01.791Z,11.99
2022-10-19T23:07:03.696Z,12.75
2022-10-19T23:10:05.943Z,12.48
2022-10-19T23:13:09.626Z,12.19
2022-10-19T23:16:11.582Z,11.85
2022-10-19T23:19:13.405Z,12.21
2022-10-19T23:22:15.338Z,13.31
2022-10-19T23:25:17.152Z,13.47
2022-10-19T23:28:18.981Z,13.45
2022-10-19T23:31:24.576Z,13.12
2022-10-19T23:34:26.415Z,13.36
2022-10-19T23:37:28.321Z,13.12
2022-10-19T23:40:30.118Z,13.18
2022-10-19T23:43:32.032Z,13.18
2022-10-19T23:46:33.950Z,12.56
2022-10-19T23:49:35.838Z,12.72
2022-10-19T23:52:37.651Z,11.84
2022-10-19T23:55:39.481Z,11.64
2022-10-19T23:58:41.478Z,12.38
